createdAt,value
2023-12-08T00:00:11.627Z,2.36
2023-12-08T00:01:16.811Z,2.21
2023-12-08T00:02:18.529Z,2.30
2023-12-08T00:03:20.088Z,2.15
2023-12-08T00:04:21.781Z,2.24
2023-12-08T00:05:23.508Z,2.29
2023-12-08T00:06:25.400Z,2.27
2023-12-08T00:07:27.727Z,1.41
2023-12-08T00:08:29.511Z,1.30
2023-12-08T00:09:32.512Z,0.66
2023-12-08T00:10:34.426Z,0.76
2023-12-08T00:11:36.005Z,0.78
2023-12-08T00:12:37.629Z,1.03
2023-12-08T00:13:39.265Z,1.44
2023-12-08T00:14:40.991Z,1.67
2023-12-08T00:15:42.975Z,1.87
2023-12-08T00:16:44.526Z,1.98
2023-12-08T00:17:46.227Z,2.02
2023-12-08T00:18:48.096Z,0.81
2023-12-08T00:19:50.344Z,1.40
2023-12-08T00:20:52.123Z,1.67
2023-12-08T00:21:53.786Z,1.95
2023-12-08T00:22:55.500Z,2.00
2023-12-08T00:23:57.162Z,2.11
2023-12-08T00:24:59.216Z,2.18
2023-12-08T00:26:02.290Z,2.30
2023-12-08T00:27:04.040Z,2.35
2023-12-08T00:28:05.844Z,2.36
2023-12-08T00:29:07.561Z,2.37
2023-12-08T00:30:09.627Z,2.31
2023-12-08T00:31:12.353Z,2.44
2023-12-08T00:32:17.604Z,2.38
2023-12-08T00:33:19.332Z,2.51
2023-12-08T00:34:21.111Z,2.50
2023-12-08T00:35:25.091Z,2.30
2023-12-08T00:36:27.160Z,2.14
2023-12-08T00:37:29.172Z,2.14
2023-12-08T00:38:31.232Z,2.23
2023-12-08T00:39:32.800Z,2.24
2023-12-08T00:40:34.376Z,2.26
2023-12-08T00:41:36.533Z,2.37
2023-12-08T00:42:38.443Z,2.40
2023-12-08T00:43:40.027Z,2.45
2023-12-08T00:44:41.761Z,2.42
2023-12-08T00:45:43.382Z,2.52
2023-12-08T00:46:45.331Z,2.56
2023-12-08T00:47:47.212Z,2.60
2023-12-08T00:48:49.053Z,2.65
2023-12-08T00:49:51.113Z,2.57
2023-12-08T00:50:52.794Z,2.65
2023-12-08T00:51:55.184Z,2.63
2023-12-08T00:52:56.875Z,2.66
2023-12-08T00:53:58.538Z,2.49
2023-12-08T00:55:00.151Z,2.52
2023-12-08T00:56:01.773Z,2.63
2023-12-08T00:57:04.159Z,2.65
2023-12-08T00:58:05.854Z,2.73
2023-12-08T00:59:07.437Z,2.78
2023-12-08T01:00:09.390Z,2.74
2023-12-08T01:01:11.532Z,2.58
2023-12-08T01:02:13.569Z,2.75
2023-12-08T01:03:15.754Z,2.87
2023-12-08T01:04:20.605Z,2.83
2023-12-08T01:05:22.329Z,2.85
2023-12-08T01:06:23.969Z,2.89
2023-12-08T01:07:25.854Z,2.97
2023-12-08T01:08:27.666Z,2.92
2023-12-08T01:09:29.396Z,2.98
2023-12-08T01:10:31.026Z,2.97
2023-12-08T01:11:34.933Z,2.97
2023-12-08T01:12:37.001Z,2.95
2023-12-08T01:13:39.023Z,3.06
2023-12-08T01:14:41.348Z,3.09
2023-12-08T01:15:43.057Z,2.92
2023-12-08T01:16:45.105Z,2.79
2023-12-08T01:17:46.807Z,2.92
2023-12-08T01:18:48.516Z,2.96
2023-12-08T01:19:50.131Z,2.90
2023-12-08T01:20:53.256Z,2.94
2023-12-08T01:21:55.503Z,2.85
2023-12-08T01:22:57.585Z,3.00
2023-12-08T01:23:59.649Z,2.99
2023-12-08T01:25:01.581Z,2.98
2023-12-08T01:26:06.507Z,3.01
2023-12-08T01:27:08.110Z,3.06
2023-12-08T01:28:09.653Z,3.08
2023-12-08T01:29:12.168Z,2.97
2023-12-08T01:30:14.572Z,3.03
2023-12-08T01:31:16.319Z,2.93
2023-12-08T01:32:18.972Z,2.90
2023-12-08T01:33:20.802Z,2.94
2023-12-08T01:34:22.633Z,3.00
2023-12-08T01:35:24.365Z,2.98
2023-12-08T01:36:41.631Z,2.96
2023-12-08T01:37:46.075Z,3.05
2023-12-08T01:38:47.797Z,3.04
2023-12-08T01:39:49.661Z,3.03
2023-12-08T01:40:51.353Z,3.07
2023-12-08T01:41:53.028Z,3.08
2023-12-08T01:42:55.145Z,3.01
2023-12-08T01:43:56.813Z,3.08
2023-12-08T01:44:58.465Z,3.11
2023-12-08T01:46:00.278Z,3.13
2023-12-08T01:47:01.898Z,3.16
2023-12-08T01:48:04.304Z,3.16
2023-12-08T01:49:07.333Z,3.12
2023-12-08T01:50:08.931Z,3.35
2023-12-08T01:51:11.232Z,3.31
2023-12-08T01:52:12.889Z,3.19
2023-12-08T01:53:14.879Z,3.15
2023-12-08T01:54:16.581Z,3.11
2023-12-08T01:55:18.290Z,3.17
2023-12-08T01:56:19.882Z,3.17
2023-12-08T01:57:21.628Z,3.10
2023-12-08T01:58:23.927Z,2.90
2023-12-08T01:59:25.617Z,2.82
2023-12-08T02:00:28.335Z,2.92
2023-12-08T02:01:30.173Z,2.18
2023-12-08T02:02:32.113Z,2.10
2023-12-08T02:03:36.820Z,1.70
2023-12-08T02:04:38.497Z,2.18
2023-12-08T02:05:41.471Z,2.44
2023-12-08T02:06:43.087Z,2.59
2023-12-08T02:07:45.396Z,2.68
2023-12-08T02:08:48.077Z,2.78
2023-12-08T02:09:49.694Z,2.82
2023-12-08T02:10:51.314Z,2.90
2023-12-08T02:11:52.977Z,2.95
2023-12-08T02:12:54.912Z,2.93
2023-12-08T02:15:08.590Z,3.07
2023-12-08T02:16:17.229Z,3.01
2023-12-08T02:17:27.348Z,3.01
2023-12-08T02:18:29.331Z,3.08
2023-12-08T02:19:31.283Z,3.07
2023-12-08T02:20:33.243Z,2.76
2023-12-08T02:21:35.283Z,2.89
2023-12-08T02:22:37.003Z,3.01
2023-12-08T02:23:38.679Z,2.49
2023-12-08T02:24:40.245Z,2.71
2023-12-08T02:25:42.516Z,1.90
2023-12-08T02:26:44.109Z,1.89
2023-12-08T02:27:45.709Z,1.52
2023-12-08T02:28:47.305Z,2.00
2023-12-08T02:29:48.915Z,2.44
2023-12-08T02:30:50.525Z,2.59
2023-12-08T02:32:06.255Z,2.69
2023-12-08T02:33:19.955Z,2.85
2023-12-08T02:34:21.603Z,3.03
2023-12-08T02:35:23.276Z,3.02
2023-12-08T02:36:24.834Z,3.00
2023-12-08T02:37:26.961Z,3.01
2023-12-08T02:38:28.645Z,3.06
2023-12-08T02:39:30.206Z,3.11
2023-12-08T02:40:31.836Z,3.14
2023-12-08T02:41:33.622Z,3.14
2023-12-08T02:42:35.998Z,3.21
2023-12-08T02:43:37.592Z,3.25
2023-12-08T02:44:39.165Z,3.29
2023-12-08T02:45:40.745Z,3.28
2023-12-08T02:46:42.829Z,3.30
2023-12-08T02:47:44.513Z,3.30
2023-12-08T02:48:54.230Z,3.32
2023-12-08T02:49:57.342Z,3.28
2023-12-08T02:50:59.134Z,3.32
2023-12-08T02:52:00.731Z,3.35
2023-12-08T02:53:02.633Z,3.39
2023-12-08T02:54:04.339Z,3.40
2023-12-08T02:55:06.181Z,3.42
2023-12-08T02:56:08.384Z,3.44
2023-12-08T02:57:10.124Z,3.45
2023-12-08T02:58:12.085Z,3.46
2023-12-08T02:59:13.767Z,3.04
2023-12-08T03:00:15.562Z,2.80
2023-12-08T03:01:17.845Z,2.38
2023-12-08T03:02:19.605Z,1.87
2023-12-08T03:03:21.610Z,2.26
2023-12-08T03:04:23.355Z,2.68
2023-12-08T03:05:24.954Z,2.63
2023-12-08T03:06:26.533Z,2.74
2023-12-08T03:07:28.292Z,2.89
2023-12-08T03:08:30.387Z,3.00
2023-12-08T03:09:31.983Z,2.95
2023-12-08T03:10:33.546Z,2.00
2023-12-08T03:11:35.149Z,2.06
2023-12-08T03:12:36.776Z,2.36
2023-12-08T03:13:38.722Z,2.21
2023-12-08T03:14:40.523Z,1.42
2023-12-08T03:15:42.230Z,1.36
2023-12-08T03:16:47.045Z,1.46
2023-12-08T03:17:48.741Z,1.71
2023-12-08T03:18:50.869Z,1.12
2023-12-08T03:19:52.641Z,0.87
2023-12-08T03:20:54.515Z,0.96
2023-12-08T03:21:56.143Z,1.41
2023-12-08T03:22:58.136Z,1.50
2023-12-08T03:23:59.824Z,0.61
2023-12-08T03:25:01.560Z,1.42
2023-12-08T03:26:03.511Z,1.99
2023-12-08T03:27:05.218Z,1.36
2023-12-08T03:28:07.149Z,1.33
2023-12-08T03:29:08.790Z,1.49
2023-12-08T03:30:12.870Z,2.00
2023-12-08T03:31:27.266Z,2.44
2023-12-08T03:32:29.038Z,2.72
2023-12-08T03:33:31.124Z,2.80
2023-12-08T03:34:32.815Z,2.94
2023-12-08T03:35:34.433Z,2.96
2023-12-08T03:36:36.069Z,3.03
2023-12-08T03:37:37.701Z,3.09
2023-12-08T03:38:39.705Z,3.10
2023-12-08T03:39:41.293Z,3.17
2023-12-08T03:40:42.989Z,3.16
2023-12-08T03:41:44.629Z,2.54
2023-12-08T03:42:46.337Z,2.83
2023-12-08T03:43:48.309Z,3.06
2023-12-08T03:44:49.950Z,2.80
2023-12-08T03:45:51.536Z,2.73
2023-12-08T03:46:53.087Z,2.99
2023-12-08T03:47:54.761Z,3.15
2023-12-08T03:48:56.924Z,2.76
2023-12-08T03:49:58.682Z,2.90
2023-12-08T03:51:00.338Z,3.04
2023-12-08T03:52:01.933Z,3.15
2023-12-08T03:53:03.531Z,2.57
2023-12-08T03:54:05.539Z,2.65
2023-12-08T03:55:07.712Z,2.53
2023-12-08T03:56:09.545Z,2.44
2023-12-08T03:57:11.224Z,2.39
2023-12-08T03:58:12.874Z,2.51
2023-12-08T03:59:14.500Z,2.30
2023-12-08T04:00:16.538Z,1.90
2023-12-08T04:01:18.722Z,0.84
2023-12-08T04:02:20.325Z,1.13
2023-12-08T04:03:21.966Z,1.68
2023-12-08T04:04:26.375Z,1.89
2023-12-08T04:05:29.290Z,1.81
2023-12-08T04:06:30.966Z,1.11
2023-12-08T04:07:32.573Z,1.21
2023-12-08T04:08:34.176Z,1.81
2023-12-08T04:09:36.107Z,1.61
2023-12-08T04:10:38.248Z,0.69
2023-12-08T04:11:39.879Z,0.08
2023-12-08T04:12:41.425Z,0.00
2023-12-08T04:13:43.045Z,0.84
2023-12-08T04:14:45.455Z,1.48
2023-12-08T04:15:47.182Z,0.50
2023-12-08T04:16:51.677Z,1.30
2023-12-08T04:17:53.387Z,0.89
2023-12-08T04:18:55.172Z,0.31
2023-12-08T04:19:57.176Z,0.64
2023-12-08T04:20:58.791Z,0.80
2023-12-08T04:22:00.373Z,1.32
2023-12-08T04:23:04.584Z,1.75
2023-12-08T04:24:06.727Z,2.16
2023-12-08T04:25:08.832Z,2.47
2023-12-08T04:26:10.362Z,2.78
2023-12-08T04:27:12.171Z,2.05
2023-12-08T04:28:13.760Z,2.14
2023-12-08T04:29:15.330Z,2.50
2023-12-08T04:30:17.102Z,2.82
2023-12-08T04:31:18.780Z,2.24
2023-12-08T04:32:20.338Z,1.65
2023-12-08T04:33:22.210Z,2.26
2023-12-08T04:34:24.085Z,2.15
2023-12-08T04:35:26.095Z,2.37
2023-12-08T04:36:27.770Z,2.43
2023-12-08T04:37:29.387Z,1.84
2023-12-08T04:38:31.058Z,1.41
2023-12-08T04:39:32.630Z,1.74
2023-12-08T04:40:34.531Z,2.46
2023-12-08T04:41:36.283Z,2.47
2023-12-08T04:42:37.898Z,2.75
2023-12-08T04:43:39.464Z,2.82
2023-12-08T04:44:41.124Z,2.46
2023-12-08T04:45:43.487Z,2.47
2023-12-08T04:46:45.055Z,2.69
2023-12-08T04:47:46.744Z,3.03
2023-12-08T04:48:48.657Z,3.17
2023-12-08T04:49:50.942Z,3.26
2023-12-08T04:50:53.181Z,3.32
2023-12-08T04:51:54.803Z,3.48
2023-12-08T04:52:56.442Z,3.43
2023-12-08T04:53:58.079Z,3.00
2023-12-08T04:55:00.157Z,2.27
2023-12-08T04:56:01.780Z,2.66
2023-12-08T04:57:05.138Z,3.03
2023-12-08T04:58:07.035Z,3.22
2023-12-08T04:59:09.491Z,3.29
2023-12-08T05:00:11.669Z,3.28
2023-12-08T05:01:14.354Z,2.03
2023-12-08T05:02:15.979Z,1.60
2023-12-08T05:03:17.647Z,1.79
2023-12-08T05:04:22.276Z,1.40
2023-12-08T05:05:24.159Z,1.58
2023-12-08T05:06:27.641Z,1.09
2023-12-08T05:07:30.246Z,1.41
2023-12-08T05:08:31.843Z,1.61
2023-12-08T05:09:33.386Z,2.21
2023-12-08T05:10:35.278Z,2.05
2023-12-08T05:11:36.865Z,2.20
2023-12-08T05:12:38.595Z,2.66
2023-12-08T05:13:40.170Z,2.85
2023-12-08T05:14:41.778Z,2.98
2023-12-08T05:15:43.796Z,3.09
2023-12-08T05:16:45.406Z,3.22
2023-12-08T05:17:47.113Z,3.29
2023-12-08T05:18:49.028Z,3.36
2023-12-08T05:19:50.735Z,3.46
2023-12-08T05:20:53.016Z,3.51
2023-12-08T05:21:56.349Z,3.23
2023-12-08T05:22:57.904Z,3.42
2023-12-08T05:23:59.499Z,3.14
2023-12-08T05:25:01.098Z,2.52
2023-12-08T05:26:03.333Z,3.04
2023-12-08T05:27:05.279Z,3.17
2023-12-08T05:28:07.053Z,2.95
2023-12-08T05:29:09.481Z,3.23
2023-12-08T05:30:11.962Z,3.41
2023-12-08T05:31:13.674Z,3.64
2023-12-08T05:32:15.381Z,3.63
2023-12-08T05:33:17.388Z,3.76
2023-12-08T05:34:20.237Z,3.87
2023-12-08T05:35:21.854Z,3.81
2023-12-08T05:36:23.535Z,3.80
2023-12-08T05:37:25.425Z,3.78
2023-12-08T05:38:27.169Z,3.74
2023-12-08T05:39:28.950Z,3.80
2023-12-08T05:40:30.486Z,3.76
2023-12-08T05:41:32.418Z,3.75
2023-12-08T05:42:34.163Z,3.81
2023-12-08T05:43:35.805Z,3.86
2023-12-08T05:44:38.096Z,3.90
2023-12-08T05:45:39.787Z,3.96
2023-12-08T05:46:41.713Z,3.97
2023-12-08T05:47:44.777Z,3.96
2023-12-08T05:48:46.724Z,3.97
2023-12-08T05:49:48.555Z,2.93
2023-12-08T05:50:50.206Z,2.05
2023-12-08T05:51:52.243Z,2.65
2023-12-08T05:52:53.833Z,3.03
2023-12-08T05:53:55.556Z,2.77
2023-12-08T05:54:57.139Z,2.29
2023-12-08T05:55:58.796Z,2.92
2023-12-08T05:57:01.051Z,3.22
2023-12-08T05:58:03.047Z,3.48
2023-12-08T05:59:04.773Z,3.60
2023-12-08T06:00:10.988Z,3.72
2023-12-08T06:01:14.786Z,3.80
2023-12-08T06:02:16.798Z,3.80
2023-12-08T06:03:18.704Z,3.76
2023-12-08T06:04:20.299Z,2.03
2023-12-08T06:05:21.997Z,0.69
2023-12-08T06:06:23.846Z,1.04
2023-12-08T06:07:26.210Z,1.28
2023-12-08T06:08:28.080Z,2.32
2023-12-08T06:09:29.672Z,2.59
2023-12-08T06:10:31.286Z,2.95
2023-12-08T06:11:33.108Z,2.66
2023-12-08T06:12:35.734Z,3.02
2023-12-08T06:13:37.351Z,2.97
2023-12-08T06:14:39.148Z,3.17
2023-12-08T06:15:41.175Z,3.25
2023-12-08T06:16:42.965Z,3.01
2023-12-08T06:17:45.301Z,3.19
2023-12-08T06:18:47.316Z,3.24
2023-12-08T06:19:49.872Z,3.39
2023-12-08T06:20:51.530Z,3.52
2023-12-08T06:21:53.463Z,3.62
2023-12-08T06:22:55.566Z,3.26
2023-12-08T06:23:57.526Z,3.25
2023-12-08T06:24:59.195Z,3.47
2023-12-08T06:26:00.794Z,3.62
2023-12-08T06:27:02.749Z,3.73
2023-12-08T06:28:04.688Z,3.74
2023-12-08T06:29:06.337Z,3.82
2023-12-08T06:30:09.235Z,3.55
2023-12-08T06:31:11.037Z,3.05
2023-12-08T06:32:12.971Z,3.32
2023-12-08T06:33:14.771Z,3.67
2023-12-08T06:34:17.448Z,3.79
2023-12-08T06:35:19.682Z,3.92
2023-12-08T06:36:21.330Z,3.89
2023-12-08T06:37:23.390Z,3.76
2023-12-08T06:38:25.102Z,3.78
2023-12-08T06:39:26.797Z,3.83
2023-12-08T06:40:28.415Z,3.89
2023-12-08T06:41:29.975Z,1.97
2023-12-08T06:42:31.933Z,1.97
2023-12-08T06:43:33.502Z,1.87
2023-12-08T06:44:35.274Z,0.84
2023-12-08T06:45:36.926Z,0.92
2023-12-08T06:46:38.546Z,2.02
2023-12-08T06:47:40.533Z,2.49
2023-12-08T06:48:42.254Z,2.59
2023-12-08T06:49:44.190Z,2.96
2023-12-08T06:50:45.989Z,3.21
2023-12-08T06:51:47.585Z,2.27
2023-12-08T06:52:52.826Z,1.09
2023-12-08T06:53:54.586Z,1.89
2023-12-08T06:54:56.211Z,2.11
2023-12-08T06:55:57.765Z,1.94
2023-12-08T06:56:59.387Z,2.45
2023-12-08T06:58:01.795Z,2.44
2023-12-08T06:59:03.474Z,0.77
2023-12-08T07:00:11.422Z,1.25
2023-12-08T07:01:13.273Z,0.90
2023-12-08T07:02:15.953Z,0.66
2023-12-08T07:03:17.698Z,1.51
2023-12-08T07:04:19.469Z,2.15
2023-12-08T07:05:22.225Z,2.54
2023-12-08T07:06:24.748Z,1.30
2023-12-08T07:07:26.750Z,0.84
2023-12-08T07:08:29.199Z,1.68
2023-12-08T07:09:31.445Z,1.17
2023-12-08T07:10:33.058Z,1.03
2023-12-08T07:11:35.127Z,1.22
2023-12-08T07:12:37.174Z,0.85
2023-12-08T07:13:39.247Z,0.63
2023-12-08T07:14:40.944Z,1.22
2023-12-08T07:15:42.688Z,1.05
2023-12-08T07:16:44.985Z,0.56
2023-12-08T07:17:47.129Z,0.78
2023-12-08T07:18:53.476Z,1.60
2023-12-08T07:19:56.792Z,2.21
2023-12-08T07:20:58.514Z,2.59
2023-12-08T07:22:00.222Z,2.90
2023-12-08T07:23:02.546Z,2.09
2023-12-08T07:24:07.388Z,2.38
2023-12-08T07:25:10.251Z,2.89
2023-12-08T07:26:11.892Z,1.44
2023-12-08T07:27:13.632Z,2.01
2023-12-08T07:28:15.265Z,2.22
2023-12-08T07:29:17.304Z,2.53
2023-12-08T07:30:19.068Z,2.98
2023-12-08T07:31:20.733Z,3.16
2023-12-08T07:32:22.381Z,2.62
2023-12-08T07:33:24.269Z,1.92
2023-12-08T07:34:26.074Z,2.10
2023-12-08T07:35:27.705Z,2.72
2023-12-08T07:36:29.348Z,1.24
2023-12-08T07:37:31.171Z,1.46
2023-12-08T07:38:33.229Z,1.91
2023-12-08T07:39:35.179Z,2.46
2023-12-08T07:40:36.935Z,2.60
2023-12-08T07:41:38.838Z,1.39
2023-12-08T07:42:40.528Z,1.13
2023-12-08T07:43:42.798Z,1.06
2023-12-08T07:44:46.167Z,1.24
2023-12-08T07:45:48.086Z,1.29
2023-12-08T07:46:49.724Z,1.14
2023-12-08T07:47:51.514Z,0.73
2023-12-08T07:48:53.664Z,1.56
2023-12-08T07:49:55.508Z,1.75
2023-12-08T07:50:57.208Z,1.54
2023-12-08T07:51:58.852Z,1.99
2023-12-08T07:53:01.073Z,1.52
2023-12-08T07:54:04.690Z,2.37
2023-12-08T07:55:06.935Z,2.88
2023-12-08T07:56:09.250Z,3.15
2023-12-08T07:57:11.127Z,2.58
2023-12-08T07:58:12.931Z,1.79
2023-12-08T07:59:14.734Z,2.65
2023-12-08T08:00:16.944Z,3.26
2023-12-08T08:01:18.562Z,3.36
2023-12-08T08:02:20.175Z,3.49
2023-12-08T08:03:21.878Z,3.68
2023-12-08T08:04:23.915Z,3.54
2023-12-08T08:05:26.265Z,3.74
2023-12-08T08:06:28.009Z,1.99
2023-12-08T08:07:30.049Z,2.36
2023-12-08T08:08:34.469Z,2.14
2023-12-08T08:09:36.197Z,1.45
2023-12-08T08:10:37.873Z,1.26
2023-12-08T08:11:39.600Z,1.79
2023-12-08T08:12:41.283Z,2.18
2023-12-08T08:13:43.339Z,1.73
2023-12-08T08:14:45.893Z,1.65
2023-12-08T08:15:47.555Z,2.17
2023-12-08T08:16:49.353Z,2.73
2023-12-08T08:17:51.191Z,3.07
2023-12-08T08:18:53.305Z,2.09
2023-12-08T08:19:55.016Z,2.22
2023-12-08T08:20:56.869Z,1.48
2023-12-08T08:22:28.119Z,1.32
2023-12-08T08:23:19.980Z,2.59
2023-12-08T08:24:21.931Z,3.10
2023-12-08T08:25:26.202Z,1.72
2023-12-08T08:26:28.376Z,2.41
2023-12-08T08:27:30.537Z,2.88
2023-12-08T08:28:32.457Z,2.94
2023-12-08T08:29:34.402Z,3.25
2023-12-08T08:30:36.280Z,3.47
2023-12-08T08:31:37.871Z,2.40
2023-12-08T08:32:39.466Z,1.53
2023-12-08T08:33:42.159Z,0.90
2023-12-08T08:34:45.002Z,1.95
2023-12-08T08:35:46.715Z,2.36
2023-12-08T08:36:48.318Z,2.77
2023-12-08T08:37:50.432Z,3.17
2023-12-08T08:38:52.430Z,3.41
2023-12-08T08:39:54.102Z,3.51
2023-12-08T08:40:55.917Z,3.67
2023-12-08T08:41:57.697Z,3.32
2023-12-08T08:42:59.307Z,3.73
2023-12-08T08:44:01.839Z,2.93
2023-12-08T08:45:04.161Z,2.62
2023-12-08T08:46:05.855Z,2.84
2023-12-08T08:47:08.117Z,2.05
2023-12-08T08:48:10.250Z,2.78
2023-12-08T08:49:12.681Z,3.32
2023-12-08T08:50:14.486Z,3.56
2023-12-08T08:51:17.723Z,2.81
2023-12-08T08:52:20.001Z,2.37
2023-12-08T08:53:22.226Z,3.05
2023-12-08T08:54:24.152Z,1.75
2023-12-08T08:55:25.735Z,1.67
2023-12-08T08:56:27.474Z,2.57
2023-12-08T08:57:29.540Z,3.14
2023-12-08T08:58:31.461Z,3.51
2023-12-08T08:59:33.716Z,3.80
2023-12-08T09:00:35.466Z,3.89
2023-12-08T09:01:39.412Z,3.95
2023-12-08T09:02:42.616Z,4.03
2023-12-08T09:03:44.756Z,3.54
2023-12-08T09:04:46.831Z,3.75
2023-12-08T09:05:48.505Z,3.88
2023-12-08T09:06:51.456Z,4.04
2023-12-08T09:07:53.348Z,3.66
2023-12-08T09:08:54.909Z,3.47
2023-12-08T09:09:57.852Z,2.14
2023-12-08T09:10:59.407Z,2.09
2023-12-08T09:12:00.988Z,1.90
2023-12-08T09:13:02.738Z,2.31
2023-12-08T09:14:04.358Z,2.72
2023-12-08T09:15:06.305Z,3.19
2023-12-08T09:16:08.055Z,3.47
2023-12-08T09:17:09.755Z,3.68
2023-12-08T09:18:16.114Z,2.07
2023-12-08T09:19:17.841Z,1.51
2023-12-08T09:20:19.808Z,1.51
2023-12-08T09:21:21.649Z,1.40
2023-12-08T09:22:23.632Z,1.14
2023-12-08T09:23:25.344Z,1.66
2023-12-08T09:24:27.447Z,1.78
2023-12-08T09:25:29.508Z,1.85
2023-12-08T09:26:31.130Z,1.07
2023-12-08T09:27:32.786Z,0.98
2023-12-08T09:28:34.739Z,1.65
2023-12-08T09:29:36.667Z,2.39
2023-12-08T09:30:38.287Z,0.66
2023-12-08T09:31:39.897Z,1.28
2023-12-08T09:32:41.591Z,1.06
2023-12-08T09:33:43.522Z,0.63
2023-12-08T09:34:45.777Z,1.78
2023-12-08T09:35:47.735Z,1.54
2023-12-08T09:37:24.892Z,1.32
2023-12-08T09:38:14.670Z,2.30
2023-12-08T09:39:22.699Z,1.53
2023-12-08T09:40:25.559Z,0.75
2023-12-08T09:41:27.135Z,0.64
2023-12-08T09:42:36.137Z,0.96
2023-12-08T09:43:45.952Z,2.03
2023-12-08T09:44:47.652Z,2.62
2023-12-08T09:45:49.636Z,3.03
2023-12-08T09:46:56.096Z,3.31
2023-12-08T09:47:57.835Z,2.33
2023-12-08T09:49:00.308Z,1.05
2023-12-08T09:50:03.385Z,2.15
2023-12-08T09:51:05.376Z,1.26
2023-12-08T09:52:07.004Z,1.33
2023-12-08T09:53:09.105Z,2.26
2023-12-08T09:54:11.141Z,2.45
2023-12-08T09:55:12.735Z,2.64
2023-12-08T09:56:14.868Z,1.23
2023-12-08T09:57:16.986Z,2.20
2023-12-08T09:58:18.955Z,2.83
2023-12-08T09:59:32.613Z,3.19
2023-12-08T10:00:35.489Z,3.58
2023-12-08T10:01:37.075Z,2.00
2023-12-08T10:02:38.696Z,1.23
2023-12-08T10:03:41.768Z,0.58
2023-12-08T10:04:43.324Z,0.63
2023-12-08T10:05:45.287Z,1.26
2023-12-08T10:06:46.896Z,1.85
2023-12-08T10:07:48.949Z,1.16
2023-12-08T10:08:51.397Z,2.13
2023-12-08T10:09:53.065Z,2.82
2023-12-08T10:10:55.103Z,1.63
2023-12-08T10:11:56.709Z,1.52
2023-12-08T10:12:59.434Z,2.35
2023-12-08T10:14:03.698Z,3.01
2023-12-08T10:15:12.705Z,3.43
2023-12-08T10:16:14.910Z,2.89
2023-12-08T10:17:16.571Z,2.54
2023-12-08T10:18:25.320Z,1.24
2023-12-08T10:19:27.312Z,2.43
2023-12-08T10:20:28.963Z,1.91
2023-12-08T10:21:30.878Z,2.85
2023-12-08T10:22:32.438Z,3.39
2023-12-08T10:23:34.189Z,3.52
2023-12-08T10:24:35.811Z,1.84
2023-12-08T10:25:38.025Z,2.10
2023-12-08T10:26:40.922Z,2.88
2023-12-08T10:27:42.552Z,3.42
2023-12-08T10:28:44.324Z,3.71
2023-12-08T10:29:45.941Z,3.92
2023-12-08T10:30:51.080Z,3.96
2023-12-08T10:31:54.020Z,4.11
2023-12-08T10:32:56.123Z,4.19
2023-12-08T10:33:58.233Z,3.56
2023-12-08T10:34:59.897Z,4.02
2023-12-08T10:36:01.545Z,4.22
2023-12-08T10:37:03.474Z,4.24
2023-12-08T10:38:05.049Z,4.27
2023-12-08T10:39:08.008Z,2.78
2023-12-08T10:40:13.499Z,3.58
2023-12-08T10:41:15.250Z,3.87
2023-12-08T10:42:17.155Z,4.16
2023-12-08T10:43:23.886Z,4.22
2023-12-08T10:44:26.861Z,4.28
2023-12-08T10:45:28.789Z,4.17
2023-12-08T10:46:33.360Z,2.54
2023-12-08T10:47:34.981Z,3.37
2023-12-08T10:48:38.850Z,3.50
2023-12-08T10:49:40.667Z,3.75
2023-12-08T10:50:43.382Z,2.77
2023-12-08T10:51:45.653Z,1.63
2023-12-08T10:52:47.195Z,2.35
2023-12-08T10:53:48.845Z,2.15
2023-12-08T10:54:50.442Z,1.32
2023-12-08T10:56:10.648Z,1.60
2023-12-08T10:57:13.189Z,2.65
2023-12-08T10:58:16.208Z,3.15
2023-12-08T10:59:22.595Z,2.78
2023-12-08T11:00:25.338Z,3.45
2023-12-08T11:01:26.991Z,3.02
2023-12-08T11:02:31.848Z,3.60
2023-12-08T11:03:34.191Z,3.29
2023-12-08T11:04:36.518Z,2.44
2023-12-08T11:05:46.600Z,2.85
2023-12-08T11:07:04.501Z,3.25
2023-12-08T11:08:13.688Z,3.82
2023-12-08T11:09:16.791Z,4.08
2023-12-08T11:10:19.476Z,4.38
2023-12-08T11:11:21.545Z,3.77
2023-12-08T11:12:23.792Z,2.12
2023-12-08T11:13:28.645Z,1.71
2023-12-08T11:14:39.171Z,2.88
2023-12-08T11:15:44.722Z,2.93
2023-12-08T11:16:52.697Z,3.57
2023-12-08T11:17:59.210Z,3.24
2023-12-08T11:19:01.040Z,1.77
2023-12-08T11:20:02.866Z,1.63
2023-12-08T11:21:08.556Z,2.57
2023-12-08T11:22:10.750Z,3.39
2023-12-08T11:23:12.325Z,2.17
2023-12-08T11:24:14.211Z,2.62
2023-12-08T11:25:22.673Z,2.39
2023-12-08T11:26:29.874Z,1.91
2023-12-08T11:27:39.854Z,1.74
2023-12-08T11:29:01.531Z,2.60
2023-12-08T11:30:11.525Z,3.07
2023-12-08T11:31:32.428Z,2.23
2023-12-08T11:32:48.770Z,2.44
2023-12-08T11:34:08.892Z,3.24
2023-12-08T11:35:11.898Z,1.74
2023-12-08T11:36:19.358Z,2.71
2023-12-08T11:37:22.278Z,3.31
2023-12-08T11:38:28.438Z,3.75
2023-12-08T11:39:35.776Z,4.03
2023-12-08T11:40:52.677Z,4.13
2023-12-08T11:41:54.684Z,4.36
2023-12-08T11:42:56.291Z,3.92
2023-12-08T11:43:57.955Z,4.22
2023-12-08T11:44:59.607Z,4.42
2023-12-08T11:46:02.388Z,4.53
2023-12-08T11:47:06.851Z,4.59
2023-12-08T11:48:15.296Z,4.67
2023-12-08T11:49:17.864Z,3.10
2023-12-08T11:50:19.655Z,3.31
2023-12-08T11:51:21.224Z,2.34
2023-12-08T11:52:39.104Z,1.83
2023-12-08T11:53:56.796Z,3.19
2023-12-08T11:55:31.112Z,3.72
2023-12-08T11:56:43.648Z,4.15
2023-12-08T11:57:47.969Z,3.87
2023-12-08T11:58:49.515Z,4.08
2023-12-08T11:59:51.113Z,2.20
2023-12-08T12:00:52.745Z,2.70
2023-12-08T12:01:54.301Z,3.52
2023-12-08T12:02:56.774Z,3.86
2023-12-08T12:03:58.646Z,4.16
2023-12-08T12:05:01.323Z,4.33
2023-12-08T12:06:04.103Z,4.47
2023-12-08T12:07:06.239Z,4.42
2023-12-08T12:08:11.056Z,3.51
2023-12-08T12:09:13.118Z,4.24
2023-12-08T12:10:15.256Z,4.44
2023-12-08T12:11:24.289Z,4.56
2023-12-08T12:12:31.030Z,4.64
2023-12-08T12:13:34.311Z,4.77
2023-12-08T12:14:35.867Z,4.85
2023-12-08T12:15:37.783Z,4.87
2023-12-08T12:16:40.113Z,4.88
2023-12-08T12:17:43.307Z,4.91
2023-12-08T12:18:45.167Z,4.52
2023-12-08T12:19:46.925Z,4.69
2023-12-08T12:20:48.938Z,2.70
2023-12-08T12:21:50.501Z,2.29
2023-12-08T12:22:52.376Z,2.41
2023-12-08T12:23:53.977Z,2.48
2023-12-08T12:24:55.569Z,3.39
2023-12-08T12:25:57.159Z,3.25
2023-12-08T12:26:58.922Z,3.30
2023-12-08T12:28:00.824Z,3.70
2023-12-08T12:29:02.498Z,2.59
2023-12-08T12:30:05.073Z,2.97
2023-12-08T12:31:06.721Z,3.56
2023-12-08T12:32:09.404Z,2.71
2023-12-08T12:33:11.587Z,3.10
2023-12-08T12:34:13.374Z,2.06
2023-12-08T12:35:15.294Z,2.47
2023-12-08T12:36:17.218Z,3.07
2023-12-08T12:37:19.889Z,3.68
2023-12-08T12:38:21.547Z,3.99
2023-12-08T12:39:24.672Z,4.18
2023-12-08T12:40:26.362Z,4.40
2023-12-08T12:41:28.086Z,4.06
2023-12-08T12:42:29.683Z,3.95
2023-12-08T12:43:31.743Z,3.82
2023-12-08T12:44:43.247Z,3.29
2023-12-08T12:45:44.845Z,3.55
2023-12-08T12:46:46.542Z,4.08
2023-12-08T12:47:48.842Z,3.92
2023-12-08T12:48:50.661Z,4.31
2023-12-08T12:50:05.868Z,3.08
2023-12-08T12:51:08.869Z,4.13
2023-12-08T12:52:27.390Z,3.57
2023-12-08T12:53:30.518Z,3.74
2023-12-08T12:54:36.214Z,4.26
2023-12-08T12:55:37.808Z,3.72
2023-12-08T12:56:49.538Z,4.06
2023-12-08T12:57:51.552Z,4.37
2023-12-08T12:59:04.702Z,3.70
2023-12-08T13:00:07.057Z,4.17
2023-12-08T13:01:15.193Z,4.45
2023-12-08T13:02:16.841Z,4.56
2023-12-08T13:03:20.593Z,4.17
2023-12-08T13:04:28.338Z,4.18
2023-12-08T13:05:29.983Z,4.54
2023-12-08T13:06:33.460Z,4.70
2023-12-08T13:07:35.893Z,4.83
2023-12-08T13:08:45.082Z,4.89
2023-12-08T13:09:46.761Z,5.02
2023-12-08T13:10:49.137Z,5.01
2023-12-08T13:11:50.744Z,5.07
2023-12-08T13:12:52.422Z,5.13
2023-12-08T13:13:54.472Z,5.19
2023-12-08T13:14:56.686Z,5.18
2023-12-08T13:15:59.419Z,5.20
2023-12-08T13:17:00.976Z,5.03
2023-12-08T13:18:04.770Z,5.14
2023-12-08T13:19:06.937Z,4.36
2023-12-08T13:20:09.602Z,3.58
2023-12-08T13:21:11.187Z,4.30
2023-12-08T13:22:12.773Z,4.72
2023-12-08T13:23:14.975Z,4.88
2023-12-08T13:24:16.574Z,4.95
2023-12-08T13:25:18.251Z,4.64
2023-12-08T13:26:19.881Z,4.88
2023-12-08T13:27:21.559Z,4.30
2023-12-08T13:28:23.368Z,4.60
2023-12-08T13:29:25.264Z,4.70
2023-12-08T13:30:26.919Z,4.86
2023-12-08T13:31:28.511Z,4.97
2023-12-08T13:32:30.106Z,4.08
2023-12-08T13:33:31.730Z,2.90
2023-12-08T13:34:33.749Z,3.85
2023-12-08T13:35:36.201Z,3.31
2023-12-08T13:36:38.212Z,4.07
2023-12-08T13:37:39.782Z,4.31
2023-12-08T13:38:41.822Z,4.58
2023-12-08T13:39:43.377Z,4.71
2023-12-08T13:40:45.044Z,4.90
2023-12-08T13:41:46.677Z,4.02
2023-12-08T13:42:48.296Z,4.46
2023-12-08T13:43:50.394Z,4.71
2023-12-08T13:44:52.040Z,4.84
2023-12-08T13:45:53.662Z,4.94
2023-12-08T13:46:55.293Z,5.05
2023-12-08T13:47:57.081Z,5.14
2023-12-08T13:48:59.301Z,5.12
2023-12-08T13:50:00.937Z,5.18
2023-12-08T13:51:13.964Z,5.20
2023-12-08T13:52:23.899Z,5.53
2023-12-08T13:53:26.089Z,5.47
2023-12-08T13:54:28.990Z,5.31
2023-12-08T13:55:31.296Z,5.14
2023-12-08T13:56:33.086Z,5.20